Time,TemperatureF,DewpointF,PressureIn,WindDirection,WindDirectionDegrees,WindSpeedMPH,WindSpeedGustMPH,Humidity,HourlyPrecipIn,Conditions,Clouds,dailyrainin,SolarRadiationWatts/m^2,SoftwareType,DateUTC
2013-01-08 00:00:00,27.3,24.8,30.42,NW,306,0.0,0.0,90,0.00,,,0.00,0,Wunderground v.1.15,2013-01-08 05:00:00,
2013-01-08 00:02:00,27.3,24.8,30.42,NW,306,0.0,0.0,90,0.00,,,0.00,0,Wunderground v.1.15,2013-01-08 05:02:00,
2013-01-08 00:04:00,27.3,24.8,30.42,NW,306,0.0,0.0,90,0.00,,,0.00,0,Wunderground v.1.15,2013-01-08 05:04:00,
2013-01-08 00:10:00,27.2,24.7,30.42,NW,306,0.0,0.0,90,0.00,,,0.00,0,Wunderground v.1.15,2013-01-08 05:10:00,
2013-01-08 00:16:00,27.1,24.6,30.42,NW,306,0.0,0.0,90,0.00,,,0.00,0,Wunderground v.1.15,2013-01-08 05:16:00,
2013-01-08 00:22:00,27.0,24.7,30.42,NW,306,0.0,0.0,91,0.00,,,0.00,0,Wunderground v.1.15,2013-01-08 05:22:00,
2013-01-08 00:24:00,27.0,24.5,30.42,NW,306,0.0,0.0,90,0.00,,,0.00,0,Wunderground v.1.15,2013-01-08 05:24:00,
2013-01-08 00:30:00,26.9,24.6,30.42,NW,306,0.0,0.0,91,0.00,,,0.00,0,Wunderground v.1.15,2013-01-08 05:30:00,
2013-01-08 00:36:00,26.8,24.5,30.42,NW,306,0.0,0.0,91,0.00,,,0.00,0,Wunderground v.1.15,2013-01-08 05:36:00,
2013-01-08 00:42:00,26.8,24.5,30.42,NW,306,0.0,0.0,91,0.00,,,0.00,0,Wunderground v.1.15,2013-01-08 05:42:00,
2013-01-08 00:48:00,26.8,24.5,30.42,NW,306,0.0,0.0,91,0.00,,,0.00,0,Wunderground v.1.15,2013-01-08 05:48:00,
2013-01-08 00:54:00,26.7,24.4,30.42,NW,306,0.0,0.0,91,0.00,,,0.00,0,Wunderground v.1.15,2013-01-08 05:54:00,
2013-01-08 01:00:00,26.7,24.4,30.42,NW,306,0.0,0.0,91,0.00,,,0.00,0,Wunderground v.1.15,2013-01-08 06:00:00,
2013-01-08 01:06:00,26.7,24.4,30.42,NW,306,0.0,0.0,91,0.00,,,0.00,0,Wunderground v.1.15,2013-01-08 06:06:00,
2013-01-08 01:12:00,26.7,24.4,30.42,NW,306,0.0,0.0,91,0.00,,,0.00,0,Wunderground v.1.15,2013-01-08 06:12:00,
2013-01-08 01:18:00,26.6,24.6,30.42,NW,306,0.0,0.0,92,0.00,,,0.00,0,Wunderground v.1.15,2013-01-08 06:18:00,
2013-01-08 01:24:00,26.6,24.6,30.41,NW,306,0.0,0.0,92,0.00,,,0.00,0,Wunderground v.1.15,2013-01-08 06:24:00,
2013-01-08 01:30:00,26.5,24.5,30.41,NW,306,0.0,0.0,92,0.00,,,0.00,0,Wunderground v.1.15,2013-01-08 06:30:00,
2013-01-08 01:36:00,26.5,24.5,30.41,NW,306,0.0,0.0,92,0.00,,,0.00,0,Wunderground v.1.15,2013-01-08 06:36:00,
2013-01-08 01:42:00,26.5,24.5,30.41,NW,306,0.0,0.0,92,0.00,,,0.00,0,Wunderground v.1.15,2013-01-08 06:42:00,
2013-01-08 01:48:00,26.4,24.4,30.41,NW,306,0.0,0.0,92,0.00,,,0.00,0,Wunderground v.1.15,2013-01-08 06:48:00,
2013-01-08 01:54:00,26.5,24.5,30.41,NW,306,0.0,0.0,92,0.00,,,0.00,0,Wunderground v.1.15,2013-01-08 06:54:00,
2013-01-08 02:00:00,26.5,24.5,30.41,NW,306,0.0,0.0,92,0.00,,,0.00,0,Wunderground v.1.15,2013-01-08 07:00:00,
2013-01-08 02:06:00,26.5,24.5,30.41,NW,306,0.0,0.0,92,0.00,,,0.00,0,Wunderground v.1.15,2013-01-08 07:06:00,
2013-01-08 02:12:00,26.5,24.5,30.40,NW,306,0.0,0.0,92,0.00,,,0.00,0,Wunderground v.1.15,2013-01-08 07:12:00,
2013-01-08 02:18:00,26.5,24.5,30.40,NW,306,0.0,0.0,92,0.00,,,0.00,0,Wunderground v.1.15,2013-01-08 07:18:00,
2013-01-08 02:24:00,26.5,24.8,30.40,NW,306,0.0,0.0,93,0.00,,,0.00,0,Wunderground v.1.15,2013-01-08 07:24:00,
2013-01-08 02:30:00,26.5,24.8,30.40,NW,306,0.0,0.0,93,0.00,,,0.00,0,Wunderground v.1.15,2013-01-08 07:30:00,
2013-01-08 02:36:00,26.5,24.8,30.40,NW,306,0.0,0.0,93,0.00,,,0.00,0,Wunderground v.1.15,2013-01-08 07:36:00,
2013-01-08 02:42:00,26.5,24.8,30.41,NW,306,0.0,0.0,93,0.00,,,0.00,0,Wunderground v.1.15,2013-01-08 07:42:00,
2013-01-08 02:48:00,26.4,24.7,30.40,NW,306,0.0,0.0,93,0.00,,,0.00,0,Wunderground v.1.15,2013-01-08 07:48:00,
2013-01-08 02:54:00,26.3,24.6,30.40,NW,306,0.0,0.0,93,0.00,,,0.00,0,Wunderground v.1.15,2013-01-08 07:54:00,
2013-01-08 03:00:00,26.1,24.4,30.40,NW,306,0.0,0.0,93,0.00,,,0.00,0,Wunderground v.1.15,2013-01-08 08:00:00,
2013-01-08 03:06:00,26.0,24.3,30.40,NW,306,0.0,0.0,93,0.00,,,0.00,0,Wunderground v.1.15,2013-01-08 08:06:00,
2013-01-08 03:12:00,26.0,24.3,30.40,NW,306,0.0,0.0,93,0.00,,,0.00,0,Wunderground v.1.15,2013-01-08 08:12:00,
2013-01-08 03:18:00,25.9,24.2,30.40,NW,306,0.0,0.0,93,0.00,,,0.00,0,Wunderground v.1.15,2013-01-08 08:18:00,
2013-01-08 03:24:00,25.8,24.1,30.40,NW,306,0.0,0.0,93,0.00,,,0.00,0,Wunderground v.1.15,2013-01-08 08:24:00,
2013-01-08 03:30:00,25.7,24.0,30.39,NW,306,0.0,0.0,93,0.00,,,0.00,0,Wunderground v.1.15,2013-01-08 08:30:00,
2013-01-08 03:36:00,25.6,23.9,30.40,NW,306,0.0,0.0,93,0.00,,,0.00,0,Wunderground v.1.15,2013-01-08 08:36:00,
2013-01-08 03:42:00,25.6,23.9,30.40,NW,306,0.0,0.0,93,0.00,,,0.00,0,Wunderground v.1.15,2013-01-08 08:42:00,
2013-01-08 03:48:00,25.7,24.0,30.39,NW,306,0.0,0.0,93,0.00,,,0.00,0,Wunderground v.1.15,2013-01-08 08:48:00,
2013-01-08 03:54:00,25.7,24.0,30.40,NW,306,0.0,0.0,93,0.00,,,0.00,0,Wunderground v.1.15,2013-01-08 08:54:00,
2013-01-08 04:00:00,25.7,24.0,30.39,NW,306,0.0,0.0,93,0.00,,,0.00,0,Wunderground v.1.15,2013-01-08 09:00:00,
2013-01-08 04:06:00,25.6,23.9,30.39,NW,306,0.0,0.0,93,0.00,,,0.00,0,Wunderground v.1.15,2013-01-08 09:06:00,
2013-01-08 04:12:00,25.6,23.9,30.39,NW,306,0.0,0.0,93,0.00,,,0.00,0,Wunderground v.1.15,2013-01-08 09:12:00,
2013-01-08 04:18:00,25.6,23.9,30.39,NW,306,0.0,0.0,93,0.00,,,0.00,0,Wunderground v.1.15,2013-01-08 09:18:00,
2013-01-08 04:24:00,25.6,23.9,30.39,NW,306,0.0,0.0,93,0.00,,,0.00,0,Wunderground v.1.15,2013-01-08 09:24:00,
2013-01-08 04:30:00,25.6,23.9,30.39,NW,306,0.0,0.0,93,0.00,,,0.00,0,Wunderground v.1.15,2013-01-08 09:30:00,
2013-01-08 04:36:00,25.6,23.9,30.39,NW,306,0.0,0.0,93,0.00,,,0.00,0,Wunderground v.1.15,2013-01-08 09:36:00,
2013-01-08 04:42:00,25.6,23.9,30.39,NW,306,0.0,0.0,93,0.00,,,0.00,0,Wunderground v.1.15,2013-01-08 09:42:00,
2013-01-08 04:48:00,25.6,23.9,30.39,NW,306,0.0,0.0,93,0.00,,,0.00,0,Wunderground v.1.15,2013-01-08 09:48:00,
2013-01-08 04:54:00,25.7,24.0,30.39,NW,306,0.0,0.0,93,0.00,,,0.00,0,Wunderground v.1.15,2013-01-08 09:54:00,
2013-01-08 05:00:00,25.8,24.1,30.40,NW,306,0.0,0.0,93,0.00,,,0.00,0,Wunderground v.1.15,2013-01-08 10:00:00,
2013-01-08 05:06:00,25.8,24.1,30.39,NW,306,0.0,0.0,93,0.00,,,0.00,0,Wunderground v.1.15,2013-01-08 10:06:00,
2013-01-08 05:12:00,25.8,24.1,30.39,NW,306,0.0,0.0,93,0.00,,,0.00,0,Wunderground v.1.15,2013-01-08 10:12:00,
2013-01-08 05:18:00,25.9,24.2,30.39,NW,306,0.0,0.0,93,0.00,,,0.00,0,Wunderground v.1.15,2013-01-08 10:18:00,
2013-01-08 05:24:00,25.9,24.2,30.40,NW,306,0.0,0.0,93,0.00,,,0.00,0,Wunderground v.1.15,2013-01-08 10:24:00,
2013-01-08 05:30:00,26.0,24.3,30.40,NW,306,0.0,0.0,93,0.00,,,0.00,0,Wunderground v.1.15,2013-01-08 10:30:00,
2013-01-08 05:36:00,26.1,24.6,30.40,NW,306,0.0,0.0,94,0.00,,,0.00,0,Wunderground v.1.15,2013-01-08 10:36:00,
2013-01-08 05:42:00,26.3,24.8,30.40,NW,306,0.0,0.0,94,0.00,,,0.00,0,Wunderground v.1.15,2013-01-08 10:42:00,
2013-01-08 05:48:00,26.6,25.1,30.40,NW,306,0.0,0.0,94,0.00,,,0.00,0,Wunderground v.1.15,2013-01-08 10:48:00,
2013-01-08 05:54:00,27.2,25.7,30.41,NW,306,0.0,0.0,94,0.00,,,0.00,0,Wunderground v.1.15,2013-01-08 10:54:00,
2013-01-08 06:00:00,27.8,26.3,30.41,NW,306,0.0,0.0,94,0.00,,,0.00,0,Wunderground v.1.15,2013-01-08 11:00:00,
2013-01-08 06:06:00,28.2,26.7,30.42,NW,306,0.0,0.0,94,0.00,,,0.00,0,Wunderground v.1.15,2013-01-08 11:06:00,
2013-01-08 06:12:00,28.9,27.6,30.42,NW,306,0.0,0.0,95,0.00,,,0.00,0,Wunderground v.1.15,2013-01-08 11:12:00,
2013-01-08 06:18:00,29.6,28.3,30.42,NW,306,0.0,0.0,95,0.00,,,0.00,0,Wunderground v.1.15,2013-01-08 11:18:00,
2013-01-08 06:24:00,30.4,29.1,30.42,NW,306,0.0,0.0,95,0.00,,,0.00,0,Wunderground v.1.15,2013-01-08 11:24:00,
2013-01-08 06:30:00,30.7,29.4,30.42,NW,306,0.0,0.0,95,0.00,,,0.00,0,Wunderground v.1.15,2013-01-08 11:30:00,
2013-01-08 06:36:00,31.0,29.7,30.42,NW,306,0.0,0.0,95,0.00,,,0.00,0,Wunderground v.1.15,2013-01-08 11:36:00,
2013-01-08 06:42:00,31.0,29.7,30.43,NW,306,0.0,0.0,95,0.00,,,0.00,0,Wunderground v.1.15,2013-01-08 11:42:00,
2013-01-08 06:48:00,31.2,29.9,30.43,NW,306,0.0,0.0,95,0.00,,,0.00,0,Wunderground v.1.15,2013-01-08 11:48:00,
2013-01-08 06:54:00,31.5,30.2,30.43,NW,306,0.0,0.0,95,0.00,,,0.00,0,Wunderground v.1.15,2013-01-08 11:54:00,
2013-01-08 07:00:00,32.0,30.7,30.43,NW,306,0.0,0.0,95,0.00,,,0.00,0,Wunderground v.1.15,2013-01-08 12:00:00,
2013-01-08 07:06:00,32.4,31.1,30.42,NW,306,0.0,0.0,95,0.00,,,0.00,0,Wunderground v.1.15,2013-01-08 12:06:00,
2013-01-08 07:12:00,32.6,31.3,30.42,NW,306,0.0,0.0,95,0.00,,,0.00,0,Wunderground v.1.15,2013-01-08 12:12:00,
2013-01-08 07:18:00,32.8,31.5,30.43,NW,306,0.0,0.0,95,0.00,,,0.00,0,Wunderground v.1.15,2013-01-08 12:18:00,
2013-01-08 07:24:00,32.9,31.6,30.43,NW,306,0.0,0.0,95,0.00,,,0.00,5,Wunderground v.1.15,2013-01-08 12:24:00,
2013-01-08 07:30:00,33.0,31.7,30.43,NW,306,0.0,0.0,95,0.00,,,0.00,7,Wunderground v.1.15,2013-01-08 12:30:00,
2013-01-08 07:36:00,33.1,31.8,30.43,NW,306,0.0,0.0,95,0.00,,,0.00,11,Wunderground v.1.15,2013-01-08 12:36:00,
2013-01-08 07:42:00,33.1,31.8,30.44,NW,306,0.0,0.0,95,0.00,,,0.00,12,Wunderground v.1.15,2013-01-08 12:42:00,
2013-01-08 07:48:00,32.9,31.6,30.43,NW,306,0.0,0.0,95,0.00,,,0.00,14,Wunderground v.1.15,2013-01-08 12:48:00,
2013-01-08 07:54:00,32.7,31.4,30.43,NW,306,0.0,0.0,95,0.00,,,0.00,18,Wunderground v.1.15,2013-01-08 12:54:00,
2013-01-08 08:00:00,32.5,31.2,30.43,NW,306,0.0,0.0,95,0.00,,,0.00,19,Wunderground v.1.15,2013-01-08 13:00:00,
2013-01-08 08:06:00,32.4,31.1,30.44,NW,306,0.0,0.0,95,0.00,,,0.00,21,Wunderground v.1.15,2013-01-08 13:06:00,
2013-01-08 08:12:00,32.4,31.1,30.44,NW,306,0.0,0.0,95,0.00,,,0.00,21,Wunderground v.1.15,2013-01-08 13:12:00,
2013-01-08 08:18:00,32.4,31.1,30.44,NW,306,0.0,1.0,95,0.00,,,0.00,25,Wunderground v.1.15,2013-01-08 13:18:00,
2013-01-08 08:24:00,33.0,32.0,30.44,SSW,193,1.0,1.0,96,0.00,,,0.00,28,Wunderground v.1.15,2013-01-08 13:24:00,
2013-01-08 08:30:00,34.0,33.0,30.44,South,190,1.0,3.0,96,0.00,,,0.00,54,Wunderground v.1.15,2013-01-08 13:30:00,
2013-01-08 08:36:00,35.3,34.3,30.44,SSW,207,2.0,4.0,96,0.00,,,0.00,121,Wunderground v.1.15,2013-01-08 13:36:00,
2013-01-08 08:42:00,36.0,35.0,30.45,SSW,211,2.0,4.0,96,0.00,,,0.00,132,Wunderground v.1.15,2013-01-08 13:42:00,
2013-01-08 08:48:00,36.8,35.8,30.45,SSW,210,3.0,4.0,96,0.00,,,0.00,109,Wunderground v.1.15,2013-01-08 13:48:00,
2013-01-08 08:54:00,37.3,36.3,30.45,SSW,211,2.0,2.0,96,0.00,,,0.00,104,Wunderground v.1.15,2013-01-08 13:54:00,
2013-01-08 09:00:00,37.9,36.9,30.45,SW,227,3.0,5.0,96,0.00,,,0.00,81,Wunderground v.1.15,2013-01-08 14:00:00,
2013-01-08 09:06:00,38.3,37.3,30.45,SSW,192,4.0,6.0,96,0.00,,,0.00,53,Wunderground v.1.15,2013-01-08 14:06:00,
2013-01-08 09:12:00,38.8,37.5,30.45,SW,215,4.0,5.0,95,0.00,,,0.00,76,Wunderground v.1.15,2013-01-08 14:12:00,
2013-01-08 09:18:00,39.3,38.0,30.45,SSW,196,4.0,5.0,95,0.00,,,0.00,171,Wunderground v.1.15,2013-01-08 14:18:00,
2013-01-08 09:24:00,39.7,38.1,30.45,SSW,194,4.0,5.0,94,0.00,,,0.00,83,Wunderground v.1.15,2013-01-08 14:24:00,
2013-01-08 09:30:00,40.2,38.3,30.45,SSW,195,4.0,4.0,93,0.00,,,0.00,114,Wunderground v.1.15,2013-01-08 14:30:00,
2013-01-08 09:36:00,40.6,38.2,30.45,South,180,4.0,5.0,91,0.00,,,0.00,128,Wunderground v.1.15,2013-01-08 14:36:00,
2013-01-08 09:42:00,40.9,38.2,30.44,SSW,200,4.0,5.0,90,0.00,,,0.00,218,Wunderground v.1.15,2013-01-08 14:42:00,
2013-01-08 09:48:00,41.3,38.0,30.44,SSW,207,4.0,7.0,88,0.00,,,0.00,151,Wunderground v.1.15,2013-01-08 14:48:00,
2013-01-08 09:54:00,41.7,38.1,30.44,WSW,243,5.0,6.0,87,0.00,,,0.00,169,Wunderground v.1.15,2013-01-08 14:54:00,
2013-01-08 10:00:00,42.2,38.0,30.43,SW,221,4.0,6.0,85,0.00,,,0.00,211,Wunderground v.1.15,2013-01-08 15:00:00,
2013-01-08 10:06:00,42.5,37.7,30.43,SSW,192,4.0,6.0,83,0.00,,,0.00,248,Wunderground v.1.15,2013-01-08 15:06:00,
2013-01-08 10:12:00,42.7,37.6,30.43,WSW,242,5.0,6.0,82,0.00,,,0.00,200,Wunderground v.1.15,2013-01-08 15:12:00,
2013-01-08 10:18:00,42.9,37.5,30.43,South,187,5.0,6.0,81,0.00,,,0.00,283,Wunderground v.1.15,2013-01-08 15:18:00,
2013-01-08 10:24:00,43.1,37.3,30.43,WSW,238,4.0,8.0,80,0.00,,,0.00,334,Wunderground v.1.15,2013-01-08 15:24:00,
2013-01-08 10:30:00,43.1,37.3,30.43,SSW,194,4.0,6.0,80,0.00,,,0.00,334,Wunderground v.1.15,2013-01-08 15:30:00,
2013-01-08 10:36:00,43.2,37.4,30.42,SSW,192,4.0,6.0,80,0.00,,,0.00,339,Wunderground v.1.15,2013-01-08 15:36:00,
2013-01-08 10:42:00,43.3,36.9,30.42,SW,222,3.0,6.0,78,0.00,,,0.00,311,Wunderground v.1.15,2013-01-08 15:42:00,
2013-01-08 10:48:00,43.4,36.7,30.42,South,187,5.0,9.0,77,0.00,,,0.00,281,Wunderground v.1.15,2013-01-08 15:48:00,
2013-01-08 10:54:00,43.4,36.7,30.42,South,190,5.0,6.0,77,0.00,,,0.00,345,Wunderground v.1.15,2013-01-08 15:54:00,
2013-01-08 11:00:00,43.6,37.2,30.42,SSW,195,4.0,4.0,78,0.00,,,0.00,334,Wunderground v.1.15,2013-01-08 16:00:00,
2013-01-08 11:06:00,43.8,37.1,30.41,South,185,3.0,4.0,77,0.00,,,0.00,258,Wunderground v.1.15,2013-01-08 16:06:00,
2013-01-08 11:12:00,44.0,37.3,30.42,SW,232,3.0,6.0,77,0.00,,,0.00,279,Wunderground v.1.15,2013-01-08 16:12:00,
2013-01-08 11:18:00,44.4,37.6,30.41,SSW,192,4.0,6.0,77,0.00,,,0.00,336,Wunderground v.1.15,2013-01-08 16:18:00,
2013-01-08 11:24:00,44.7,37.3,30.41,SSW,202,4.0,4.0,75,0.00,,,0.00,301,Wunderground v.1.15,2013-01-08 16:24:00,
2013-01-08 11:30:00,44.9,37.1,30.41,South,184,4.0,4.0,74,0.00,,,0.00,285,Wunderground v.1.15,2013-01-08 16:30:00,
2013-01-08 11:36:00,45.1,37.3,30.41,West,267,4.0,5.0,74,0.00,,,0.00,244,Wunderground v.1.15,2013-01-08 16:36:00,
2013-01-08 11:42:00,45.3,37.2,30.40,SSW,204,4.0,4.0,73,0.00,,,0.00,301,Wunderground v.1.15,2013-01-08 16:42:00,
2013-01-08 11:48:00,45.4,36.9,30.40,WSW,251,5.0,8.0,72,0.00,,,0.00,281,Wunderground v.1.15,2013-01-08 16:48:00,
2013-01-08 11:54:00,45.6,37.1,30.40,SSW,202,5.0,6.0,72,0.00,,,0.00,357,Wunderground v.1.15,2013-01-08 16:54:00,
2013-01-08 12:00:00,46.0,37.1,30.39,South,190,3.0,4.0,71,0.00,,,0.00,211,Wunderground v.1.15,2013-01-08 17:00:00,
2013-01-08 12:06:00,46.2,37.0,30.39,SSW,202,4.0,7.0,70,0.00,,,0.00,209,Wunderground v.1.15,2013-01-08 17:06:00,
2013-01-08 12:12:00,46.2,36.6,30.39,South,188,5.0,5.0,69,0.00,,,0.00,332,Wunderground v.1.15,2013-01-08 17:12:00,
2013-01-08 12:18:00,46.2,36.6,30.39,WSW,245,5.0,5.0,69,0.00,,,0.00,229,Wunderground v.1.15,2013-01-08 17:18:00,
2013-01-08 12:24:00,46.1,36.9,30.38,WSW,253,4.0,6.0,70,0.00,,,0.00,200,Wunderground v.1.15,2013-01-08 17:24:00,
2013-01-08 12:30:00,46.1,36.9,30.38,South,188,3.0,3.0,70,0.00,,,0.00,216,Wunderground v.1.15,2013-01-08 17:30:00,
2013-01-08 12:36:00,46.2,37.0,30.38,SSW,200,2.0,3.0,70,0.00,,,0.00,202,Wunderground v.1.15,2013-01-08 17:36:00,
2013-01-08 12:42:00,46.2,37.0,30.38,SW,224,2.0,3.0,70,0.00,,,0.00,216,Wunderground v.1.15,2013-01-08 17:42:00,
2013-01-08 12:48:00,46.4,36.8,30.38,SW,223,2.0,3.0,69,0.00,,,0.00,200,Wunderground v.1.15,2013-01-08 17:48:00,
2013-01-08 12:54:00,46.4,36.8,30.38,WSW,247,2.0,6.0,69,0.00,,,0.00,172,Wunderground v.1.15,2013-01-08 17:54:00,
2013-01-08 13:00:00,46.4,36.8,30.37,WSW,238,3.0,3.0,69,0.00,,,0.00,178,Wunderground v.1.15,2013-01-08 18:00:00,
2013-01-08 13:06:00,46.4,36.8,30.37,WSW,238,3.0,4.0,69,0.00,,,0.00,188,Wunderground v.1.15,2013-01-08 18:06:00,
2013-01-08 13:12:00,46.5,36.5,30.37,WSW,245,4.0,4.0,68,0.00,,,0.00,202,Wunderground v.1.15,2013-01-08 18:12:00,
2013-01-08 13:18:00,46.8,36.8,30.37,SSW,200,3.0,4.0,68,0.00,,,0.00,183,Wunderground v.1.15,2013-01-08 18:18:00,
2013-01-08 13:24:00,47.1,36.7,30.37,WSW,250,2.0,3.0,67,0.00,,,0.00,174,Wunderground v.1.15,2013-01-08 18:24:00,
2013-01-08 13:30:00,47.5,36.7,30.37,WSW,254,2.0,2.0,66,0.00,,,0.00,193,Wunderground v.1.15,2013-01-08 18:30:00,
2013-01-08 13:36:00,47.7,36.5,30.37,SW,233,3.0,4.0,65,0.00,,,0.00,158,Wunderground v.1.15,2013-01-08 18:36:00,
2013-01-08 13:42:00,47.9,36.7,30.37,SW,229,4.0,5.0,65,0.00,,,0.00,132,Wunderground v.1.15,2013-01-08 18:42:00,
2013-01-08 13:48:00,48.2,37.0,30.37,SSW,211,3.0,5.0,65,0.00,,,0.00,156,Wunderground v.1.15,2013-01-08 18:48:00,
2013-01-08 13:54:00,48.5,37.3,30.37,WSW,253,3.0,5.0,65,0.00,,,0.00,104,Wunderground v.1.15,2013-01-08 18:54:00,
2013-01-08 14:00:00,48.8,37.2,30.37,West,263,3.0,4.0,64,0.00,,,0.00,134,Wunderground v.1.15,2013-01-08 19:00:00,
2013-01-08 14:06:00,48.9,37.6,30.37,SW,231,3.0,5.0,65,0.00,,,0.00,77,Wunderground v.1.15,2013-01-08 19:06:00,
2013-01-08 14:12:00,49.2,37.5,30.37,SSW,212,2.0,5.0,64,0.00,,,0.00,128,Wunderground v.1.15,2013-01-08 19:12:00,
2013-01-08 14:18:00,49.4,37.7,30.37,South,176,2.0,5.0,64,0.00,,,0.00,128,Wunderground v.1.15,2013-01-08 19:18:00,
2013-01-08 14:24:00,49.7,37.6,30.37,SSW,208,2.0,3.0,63,0.00,,,0.00,139,Wunderground v.1.15,2013-01-08 19:24:00,
2013-01-08 14:30:00,49.7,37.6,30.37,SW,217,3.0,3.0,63,0.00,,,0.00,70,Wunderground v.1.15,2013-01-08 19:30:00,
2013-01-08 14:36:00,49.7,37.6,30.37,SW,219,2.0,3.0,63,0.00,,,0.00,86,Wunderground v.1.15,2013-01-08 19:36:00,
2013-01-08 14:42:00,49.4,36.9,30.37,SW,214,2.0,3.0,62,0.00,,,0.00,79,Wunderground v.1.15,2013-01-08 19:42:00,
2013-01-08 14:48:00,49.1,37.0,30.37,SW,222,1.0,3.0,63,0.00,,,0.00,76,Wunderground v.1.15,2013-01-08 19:48:00,
2013-01-08 14:54:00,48.8,37.2,30.37,WSW,244,2.0,4.0,64,0.00,,,0.00,77,Wunderground v.1.15,2013-01-08 19:54:00,
2013-01-08 15:00:00,48.5,37.3,30.38,SW,220,1.0,2.0,65,0.00,,,0.00,84,Wunderground v.1.15,2013-01-08 20:00:00,
2013-01-08 15:06:00,48.2,37.0,30.38,WSW,244,1.0,4.0,65,0.00,,,0.00,84,Wunderground v.1.15,2013-01-08 20:06:00,
2013-01-08 15:12:00,48.1,37.3,30.38,WSW,244,1.0,1.0,66,0.00,,,0.00,114,Wunderground v.1.15,2013-01-08 20:12:00,
2013-01-08 15:18:00,48.1,37.3,30.38,WSW,244,1.0,2.0,66,0.00,,,0.00,91,Wunderground v.1.15,2013-01-08 20:18:00,
2013-01-08 15:24:00,48.2,37.0,30.38,WSW,246,1.0,1.0,65,0.00,,,0.00,51,Wunderground v.1.15,2013-01-08 20:24:00,
2013-01-08 15:30:00,48.3,37.1,30.38,WSW,246,1.0,1.0,65,0.00,,,0.00,93,Wunderground v.1.15,2013-01-08 20:30:00,
2013-01-08 15:36:00,48.3,37.1,30.38,WSW,246,0.0,1.0,65,0.00,,,0.00,60,Wunderground v.1.15,2013-01-08 20:36:00,
2013-01-08 15:42:00,48.5,37.3,30.38,WSW,246,0.0,0.0,65,0.00,,,0.00,54,Wunderground v.1.15,2013-01-08 20:42:00,
2013-01-08 15:48:00,48.5,37.3,30.38,WSW,246,0.0,1.0,65,0.00,,,0.00,47,Wunderground v.1.15,2013-01-08 20:48:00,
2013-01-08 15:54:00,48.6,37.4,30.39,WSW,246,0.0,0.0,65,0.00,,,0.00,47,Wunderground v.1.15,2013-01-08 20:54:00,
2013-01-08 16:00:00,48.6,37.4,30.39,WSW,246,1.0,1.0,65,0.00,,,0.00,44,Wunderground v.1.15,2013-01-08 21:00:00,
2013-01-08 16:06:00,48.6,37.4,30.39,WSW,246,0.0,1.0,65,0.00,,,0.00,28,Wunderground v.1.15,2013-01-08 21:06:00,
2013-01-08 16:12:00,48.6,37.4,30.39,WSW,246,0.0,0.0,65,0.00,,,0.00,28,Wunderground v.1.15,2013-01-08 21:12:00,
2013-01-08 16:18:00,48.5,37.7,30.39,WSW,246,0.0,0.0,66,0.00,,,0.00,25,Wunderground v.1.15,2013-01-08 21:18:00,
2013-01-08 16:24:00,48.4,37.6,30.38,WSW,246,0.0,0.0,66,0.00,,,0.00,18,Wunderground v.1.15,2013-01-08 21:24:00,
2013-01-08 16:30:00,48.0,37.2,30.38,WSW,246,0.0,0.0,66,0.00,,,0.00,14,Wunderground v.1.15,2013-01-08 21:30:00,
2013-01-08 16:36:00,47.4,37.0,30.39,WSW,246,1.0,1.0,67,0.00,,,0.00,11,Wunderground v.1.15,2013-01-08 21:36:00,
2013-01-08 16:42:00,46.9,36.5,30.39,WSW,246,0.0,1.0,67,0.00,,,0.00,7,Wunderground v.1.15,2013-01-08 21:42:00,
2013-01-08 16:48:00,46.3,36.7,30.39,WSW,246,0.0,1.0,69,0.00,,,0.00,7,Wunderground v.1.15,2013-01-08 21:48:00,
2013-01-08 16:54:00,45.8,36.2,30.39,WSW,246,0.0,0.0,69,0.00,,,0.00,0,Wunderground v.1.15,2013-01-08 21:54:00,
2013-01-08 17:00:00,45.5,35.9,30.39,WSW,246,0.0,0.0,69,0.00,,,0.00,0,Wunderground v.1.15,2013-01-08 22:00:00,
2013-01-08 17:06:00,45.2,36.0,30.39,WSW,246,0.0,0.0,70,0.00,,,0.00,0,Wunderground v.1.15,2013-01-08 22:06:00,
2013-01-08 17:12:00,45.0,35.8,30.39,WSW,246,0.0,0.0,70,0.00,,,0.00,0,Wunderground v.1.15,2013-01-08 22:12:00,
2013-01-08 17:18:00,44.6,35.8,30.39,WSW,246,0.0,0.0,71,0.00,,,0.00,0,Wunderground v.1.15,2013-01-08 22:18:00,
2013-01-08 17:24:00,44.4,35.9,30.39,WSW,246,0.0,0.0,72,0.00,,,0.00,0,Wunderground v.1.15,2013-01-08 22:24:00,
2013-01-08 17:30:00,44.1,35.6,30.39,WSW,246,0.0,0.0,72,0.00,,,0.00,0,Wunderground v.1.15,2013-01-08 22:30:00,
2013-01-08 17:36:00,43.7,35.6,30.39,WSW,246,0.0,0.0,73,0.00,,,0.00,0,Wunderground v.1.15,2013-01-08 22:36:00,
2013-01-08 17:42:00,43.4,35.7,30.39,WSW,246,0.0,0.0,74,0.00,,,0.00,0,Wunderground v.1.15,2013-01-08 22:42:00,
2013-01-08 17:48:00,43.1,35.4,30.39,WSW,246,0.0,0.0,74,0.00,,,0.00,0,Wunderground v.1.15,2013-01-08 22:48:00,
2013-01-08 17:54:00,42.6,35.2,30.39,WSW,246,0.0,0.0,75,0.00,,,0.00,0,Wunderground v.1.15,2013-01-08 22:54:00,
2013-01-08 18:00:00,42.2,35.2,30.39,WSW,246,0.0,0.0,76,0.00,,,0.00,0,Wunderground v.1.15,2013-01-08 23:00:00,
2013-01-08 18:06:00,41.8,35.1,30.39,WSW,246,0.0,0.0,77,0.00,,,0.00,0,Wunderground v.1.15,2013-01-08 23:06:00,
2013-01-08 18:12:00,41.5,34.8,30.40,WSW,246,0.0,0.0,77,0.00,,,0.00,0,Wunderground v.1.15,2013-01-08 23:12:00,
2013-01-08 18:18:00,41.2,34.5,30.39,WSW,246,0.0,0.0,77,0.00,,,0.00,0,Wunderground v.1.15,2013-01-08 23:18:00,
2013-01-08 18:24:00,41.0,34.7,30.40,WSW,246,0.0,0.0,78,0.00,,,0.00,0,Wunderground v.1.15,2013-01-08 23:24:00,
2013-01-08 18:30:00,40.6,34.6,30.40,WSW,246,0.0,0.0,79,0.00,,,0.00,0,Wunderground v.1.15,2013-01-08 23:30:00,
2013-01-08 18:36:00,40.4,34.7,30.40,WSW,246,0.0,0.0,80,0.00,,,0.00,0,Wunderground v.1.15,2013-01-08 23:36:00,
2013-01-08 18:42:00,40.2,34.5,30.40,WSW,246,0.0,0.0,80,0.00,,,0.00,0,Wunderground v.1.15,2013-01-08 23:42:00,
2013-01-08 18:48:00,40.1,34.7,30.40,WSW,246,0.0,0.0,81,0.00,,,0.00,0,Wunderground v.1.15,2013-01-08 23:48:00,
2013-01-08 18:54:00,40.0,34.6,30.39,WSW,246,0.0,0.0,81,0.00,,,0.00,0,Wunderground v.1.15,2013-01-08 23:54:00,
2013-01-08 19:00:00,39.8,34.8,30.39,WSW,246,0.0,0.0,82,0.00,,,0.00,0,Wunderground v.1.15,2013-01-09 00:00:00,
2013-01-08 19:06:00,39.8,34.8,30.39,WSW,246,0.0,0.0,82,0.00,,,0.00,0,Wunderground v.1.15,2013-01-09 00:06:00,
2013-01-08 19:12:00,39.7,35.0,30.39,WSW,246,0.0,0.0,83,0.00,,,0.00,0,Wunderground v.1.15,2013-01-09 00:12:00,
2013-01-08 19:18:00,39.7,35.0,30.39,WSW,246,0.0,0.0,83,0.00,,,0.00,0,Wunderground v.1.15,2013-01-09 00:18:00,
2013-01-08 19:24:00,39.7,35.0,30.39,WSW,246,0.0,0.0,83,0.00,,,0.00,0,Wunderground v.1.15,2013-01-09 00:24:00,
2013-01-08 19:30:00,39.6,34.9,30.39,WSW,246,0.0,0.0,83,0.00,,,0.00,0,Wunderground v.1.15,2013-01-09 00:30:00,
2013-01-08 19:36:00,39.6,34.9,30.40,WSW,246,0.0,0.0,83,0.00,,,0.00,0,Wunderground v.1.15,2013-01-09 00:36:00,
2013-01-08 19:42:00,39.7,35.0,30.40,WSW,246,0.0,0.0,83,0.00,,,0.00,0,Wunderground v.1.15,2013-01-09 00:42:00,
2013-01-08 19:48:00,39.7,35.0,30.40,WSW,246,0.0,0.0,83,0.00,,,0.00,0,Wunderground v.1.15,2013-01-09 00:48:00,
2013-01-08 19:54:00,39.7,35.3,30.40,WSW,246,0.0,0.0,84,0.00,,,0.00,0,Wunderground v.1.15,2013-01-09 00:54:00,
2013-01-08 20:00:00,39.8,35.4,30.40,WSW,246,0.0,0.0,84,0.00,,,0.00,0,Wunderground v.1.15,2013-01-09 01:00:00,
2013-01-08 20:06:00,39.9,35.5,30.40,WSW,246,0.0,0.0,84,0.00,,,0.00,0,Wunderground v.1.15,2013-01-09 01:06:00,
2013-01-08 20:12:00,39.9,35.5,30.39,WSW,246,0.0,0.0,84,0.00,,,0.00,0,Wunderground v.1.15,2013-01-09 01:12:00,
2013-01-08 20:18:00,40.0,35.9,30.39,WSW,246,0.0,0.0,85,0.00,,,0.00,0,Wunderground v.1.15,2013-01-09 01:18:00,
2013-01-08 20:24:00,40.2,36.1,30.39,WSW,246,0.0,0.0,85,0.00,,,0.00,0,Wunderground v.1.15,2013-01-09 01:24:00,
2013-01-08 20:30:00,40.3,36.1,30.39,WSW,246,0.0,0.0,85,0.00,,,0.00,0,Wunderground v.1.15,2013-01-09 01:30:00,
2013-01-08 20:36:00,40.4,36.2,30.39,WSW,246,0.0,0.0,85,0.00,,,0.00,0,Wunderground v.1.15,2013-01-09 01:36:00,
2013-01-08 20:42:00,40.7,36.5,30.39,WSW,246,0.0,0.0,85,0.00,,,0.00,0,Wunderground v.1.15,2013-01-09 01:42:00,
2013-01-08 20:48:00,40.8,36.6,30.38,WSW,246,0.0,0.0,85,0.00,,,0.00,0,Wunderground v.1.15,2013-01-09 01:48:00,
2013-01-08 20:54:00,41.0,36.8,30.38,WSW,246,0.0,0.0,85,0.00,,,0.00,0,Wunderground v.1.15,2013-01-09 01:54:00,
2013-01-08 21:00:00,41.2,37.0,30.37,WSW,246,0.0,0.0,85,0.00,,,0.00,0,Wunderground v.1.15,2013-01-09 02:00:00,
2013-01-08 21:06:00,41.3,37.1,30.37,WSW,246,0.0,0.0,85,0.00,,,0.00,0,Wunderground v.1.15,2013-01-09 02:06:00,
2013-01-08 21:12:00,41.4,36.9,30.37,WSW,246,0.0,0.0,84,0.00,,,0.00,0,Wunderground v.1.15,2013-01-09 02:12:00,
2013-01-08 21:18:00,41.4,36.9,30.38,WSW,246,0.0,0.0,84,0.00,,,0.00,0,Wunderground v.1.15,2013-01-09 02:18:00,
2013-01-08 21:24:00,41.4,36.9,30.38,WSW,246,0.0,0.0,84,0.00,,,0.00,0,Wunderground v.1.15,2013-01-09 02:24:00,
2013-01-08 21:30:00,41.5,37.0,30.38,WSW,246,0.0,0.0,84,0.00,,,0.00,0,Wunderground v.1.15,2013-01-09 02:30:00,
2013-01-08 21:36:00,41.5,37.0,30.39,WSW,246,0.0,0.0,84,0.00,,,0.00,0,Wunderground v.1.15,2013-01-09 02:36:00,
2013-01-08 21:42:00,41.6,37.1,30.39,WSW,246,0.0,0.0,84,0.00,,,0.00,0,Wunderground v.1.15,2013-01-09 02:42:00,
2013-01-08 21:48:00,41.8,37.0,30.39,WSW,246,0.0,1.0,83,0.00,,,0.00,0,Wunderground v.1.15,2013-01-09 02:48:00,
2013-01-08 21:54:00,42.1,37.0,30.39,WSW,246,0.0,0.0,82,0.00,,,0.00,0,Wunderground v.1.15,2013-01-09 02:54:00,
2013-01-08 22:00:00,42.4,37.3,30.39,WSW,246,0.0,0.0,82,0.00,,,0.00,0,Wunderground v.1.15,2013-01-09 03:00:00,
2013-01-08 22:06:00,42.6,37.2,30.39,WSW,246,0.0,0.0,81,0.00,,,0.00,0,Wunderground v.1.15,2013-01-09 03:06:00,
2013-01-08 22:12:00,42.8,37.1,30.40,WSW,246,0.0,0.0,80,0.00,,,0.00,0,Wunderground v.1.15,2013-01-09 03:12:00,
2013-01-08 22:18:00,43.0,36.9,30.39,WSW,246,0.0,0.0,79,0.00,,,0.00,0,Wunderground v.1.15,2013-01-09 03:18:00,
2013-01-08 22:24:00,43.2,36.8,30.39,WSW,246,0.0,0.0,78,0.00,,,0.00,0,Wunderground v.1.15,2013-01-09 03:24:00,
2013-01-08 22:30:00,43.3,36.9,30.39,WSW,246,0.0,0.0,78,0.00,,,0.00,0,Wunderground v.1.15,2013-01-09 03:30:00,
2013-01-08 22:36:00,43.4,37.0,30.39,WSW,246,0.0,0.0,78,0.00,,,0.00,0,Wunderground v.1.15,2013-01-09 03:36:00,
2013-01-08 22:42:00,43.4,37.0,30.39,WSW,246,0.0,0.0,78,0.00,,,0.00,0,Wunderground v.1.15,2013-01-09 03:42:00,
2013-01-08 22:48:00,43.4,37.0,30.39,WSW,246,0.0,0.0,78,0.00,,,0.00,0,Wunderground v.1.15,2013-01-09 03:48:00,
2013-01-08 22:54:00,43.3,36.9,30.39,WSW,246,0.0,0.0,78,0.00,,,0.00,0,Wunderground v.1.15,2013-01-09 03:54:00,
2013-01-08 23:00:00,43.3,36.9,30.40,WSW,246,0.0,0.0,78,0.00,,,0.00,0,Wunderground v.1.15,2013-01-09 04:00:00,
2013-01-08 23:06:00,43.1,36.7,30.40,WSW,246,0.0,0.0,78,0.00,,,0.00,0,Wunderground v.1.15,2013-01-09 04:06:00,
2013-01-08 23:12:00,43.0,36.9,30.39,WSW,246,0.0,0.0,79,0.00,,,0.00,0,Wunderground v.1.15,2013-01-09 04:12:00,
2013-01-08 23:18:00,42.9,36.8,30.39,WSW,246,0.0,0.0,79,0.00,,,0.00,0,Wunderground v.1.15,2013-01-09 04:18:00,
2013-01-08 23:24:00,42.6,36.9,30.39,WSW,246,0.0,0.0,80,0.00,,,0.00,0,Wunderground v.1.15,2013-01-09 04:24:00,
2013-01-08 23:30:00,42.5,36.8,30.38,WSW,246,0.0,0.0,80,0.00,,,0.00,0,Wunderground v.1.15,2013-01-09 04:30:00,
2013-01-08 23:36:00,42.4,36.7,30.38,WSW,246,0.0,0.0,80,0.00,,,0.00,0,Wunderground v.1.15,2013-01-09 04:36:00,
2013-01-08 23:42:00,42.3,36.9,30.37,WSW,246,0.0,0.0,81,0.00,,,0.00,0,Wunderground v.1.15,2013-01-09 04:42:00,
2013-01-08 23:48:00,42.2,36.8,30.37,WSW,246,0.0,0.0,81,0.00,,,0.00,0,Wunderground v.1.15,2013-01-09 04:48:00,
2013-01-08 23:54:00,42.1,37.0,30.37,WSW,246,0.0,0.0,82,0.00,,,0.00,0,Wunderground v.1.15,2013-01-09 04:54:00,